Time;durP1;ratioP1;P1;durP2;ratioP2;P2;SDS_P1;SDS_P2;PMS_P1;PMS_P2;Temp;Humidity;BMP_temperature;BMP_pressure;BME280_temperature;BME280_humidity;BME280_pressure;Samples;Min_cycle;Max_cycle;Signal;HPM_P1;HPM_P2
2023/10/01 00:00:52;;;;;;;5.47;3.00;;;16.00;99.90;;;;;;5028296;28;20645;-70
2023/10/01 00:03:19;;;;;;;7.60;3.10;;;16.00;99.90;;;;;;5027844;28;20205;-70
2023/10/01 00:05:46;;;;;;;3.83;3.07;;;16.00;99.90;;;;;;5027965;28;20296;-70
2023/10/01 00:08:13;;;;;;;4.80;3.33;;;16.00;99.90;;;;;;5027230;28;20240;-70
2023/10/01 00:10:42;;;;;;;4.73;3.03;;;16.10;99.90;;;;;;5027988;28;20204;-69
2023/10/01 00:13:09;;;;;;;7.00;3.33;;;16.10;99.90;;;;;;5027741;28;20267;-70
2023/10/01 00:15:37;;;;;;;4.50;2.90;;;16.10;99.90;;;;;;5015391;28;20292;-70
2023/10/01 00:18:06;;;;;;;4.53;3.00;;;16.10;99.90;;;;;;5025832;28;20839;-70
2023/10/01 00:20:35;;;;;;;4.57;3.20;;;16.10;99.90;;;;;;5027480;28;20675;-70
2023/10/01 00:23:03;;;;;;;5.53;3.10;;;16.10;99.90;;;;;;5027651;28;20212;-70
2023/10/01 00:25:29;;;;;;;5.13;3.20;;;16.10;99.90;;;;;;5027041;28;20211;-69
2023/10/01 00:27:58;;;;;;;4.00;3.00;;;16.00;99.90;;;;;;5027167;28;20233;-70
2023/10/01 00:30:26;;;;;;;4.73;2.57;;;16.00;99.90;;;;;;5027041;28;20671;-71
2023/10/01 00:32:55;;;;;;;4.30;2.90;;;15.90;99.90;;;;;;5026664;28;20292;-71
2023/10/01 00:35:22;;;;;;;5.53;2.93;;;15.80;99.90;;;;;;5026598;28;20570;-70
2023/10/01 00:37:50;;;;;;;3.90;2.60;;;15.70;99.90;;;;;;5027351;28;20247;-70
2023/10/01 00:40:17;;;;;;;4.97;2.53;;;15.70;99.90;;;;;;5026957;28;20631;-70
2023/10/01 00:42:44;;;;;;;6.63;2.70;;;15.60;99.90;;;;;;5027150;28;20430;-71
2023/10/01 00:45:14;;;;;;;4.43;2.73;;;15.70;99.90;;;;;;5026919;28;20304;-71
2023/10/01 00:47:42;;;;;;;3.60;2.67;;;15.60;99.90;;;;;;5027609;28;20238;-70
2023/10/01 00:50:12;;;;;;;5.50;2.97;;;15.70;99.90;;;;;;5027565;28;20311;-70
2023/10/01 00:52:40;;;;;;;6.93;3.33;;;15.80;99.90;;;;;;5027333;28;20219;-70
2023/10/01 00:55:10;;;;;;;4.23;2.47;;;15.70;99.90;;;;;;5027235;28;20299;-71
2023/10/01 00:57:38;;;;;;;6.37;2.97;;;15.70;99.90;;;;;;5027450;28;20658;-71
2023/10/01 01:00:09;;;;;;;4.67;2.90;;;15.60;99.90;;;;;;5022924;28;20236;-70
2023/10/01 01:02:38;;;;;;;3.93;2.50;;;15.70;99.90;;;;;;5026850;28;20280;-70
2023/10/01 01:05:19;;;;;;;4.20;2.80;;;15.70;99.90;;;;;;5026734;28;20294;-70
2023/10/01 01:07:49;;;;;;;4.77;2.67;;;15.70;99.90;;;;;;5026433;28;20256;-70
2023/10/01 01:10:18;;;;;;;5.43;2.70;;;15.80;99.90;;;;;;5025996;28;20656;-70
2023/10/01 01:12:47;;;;;;;2.60;2.40;;;15.80;99.90;;;;;;5026624;28;20612;-70
2023/10/01 01:15:14;;;;;;;4.10;2.60;;;15.80;99.90;;;;;;5026101;28;20205;-69
2023/10/01 01:17:43;;;;;;;5.00;2.87;;;15.80;99.90;;;;;;5026691;28;20201;-69
2023/10/01 01:20:13;;;;;;;5.00;2.70;;;15.70;99.90;;;;;;5026726;28;20201;-70
2023/10/01 01:22:44;;;;;;;4.83;2.40;;;15.70;99.90;;;;;;5026549;28;20292;-71
2023/10/01 01:25:20;;;;;;;4.50;2.90;;;15.60;99.90;;;;;;5026250;28;20614;-70
2023/10/01 01:27:47;;;;;;;2.90;2.70;;;15.70;99.90;;;;;;5026288;28;20766;-70
2023/10/01 01:30:18;;;;;;;8.33;3.00;;;15.80;99.90;;;;;;5025637;28;20216;-70
2023/10/01 01:32:47;;;;;;;6.30;3.00;;;15.80;99.90;;;;;;5015477;28;20213;-71
2023/10/01 01:35:15;;;;;;;3.30;2.40;;;15.80;99.90;;;;;;5006371;28;20213;-71
2023/10/01 01:37:47;;;;;;;6.77;2.67;;;15.80;99.90;;;;;;5009258;28;20726;-71
2023/10/01 01:40:24;;;;;;;3.83;2.60;;;15.80;99.90;;;;;;5025926;28;20196;-70
2023/10/01 01:42:56;;;;;;;4.00;2.50;;;15.70;99.90;;;;;;5017084;28;20231;-70
2023/10/01 01:45:26;;;;;;;3.43;2.50;;;15.60;99.90;;;;;;5025821;28;20743;-70
2023/10/01 01:47:54;;;;;;;6.00;2.40;;;15.70;99.90;;;;;;5026063;28;20322;-70
2023/10/01 01:50:26;;;;;;;4.40;2.67;;;15.70;99.90;;;;;;5025909;28;20734;-71
2023/10/01 01:52:57;;;;;;;5.73;2.83;;;15.70;99.90;;;;;;5026190;28;20209;-70
2023/10/01 01:55:26;;;;;;;4.50;2.57;;;15.70;99.90;;;;;;5025985;28;20512;-70
2023/10/01 01:58:06;;;;;;;8.17;3.10;;;15.60;99.90;;;;;;5025980;28;20212;-71
2023/10/01 02:00:37;;;;;;;4.13;2.47;;;15.40;99.90;;;;;;5025586;28;20209;-70
2023/10/01 02:03:12;;;;;;;3.87;2.37;;;15.30;99.90;;;;;;5025766;28;20201;-71
2023/10/01 02:05:41;;;;;;;3.17;2.50;;;15.30;99.90;;;;;;5026047;28;20238;-71
2023/10/01 02:08:11;;;;;;;3.50;2.50;;;15.20;99.90;;;;;;5025580;28;20667;-70
2023/10/01 02:10:45;;;;;;;4.33;2.37;;;15.10;99.90;;;;;;5025755;28;20215;-71
2023/10/01 02:13:17;;;;;;;4.50;2.70;;;15.20;99.90;;;;;;5025271;28;20196;-70
2023/10/01 02:15:47;;;;;;;4.33;2.67;;;15.30;99.90;;;;;;5025210;28;20262;-71
2023/10/01 02:18:17;;;;;;;5.73;2.60;;;15.40;99.90;;;;;;5025166;28;20208;-70
2023/10/01 02:20:51;;;;;;;4.47;2.53;;;15.30;99.90;;;;;;5025215;28;20299;-70
2023/10/01 02:23:26;;;;;;;3.07;2.33;;;15.40;99.90;;;;;;5024862;28;20200;-71
2023/10/01 02:25:53;;;;;;;4.23;2.67;;;15.40;99.90;;;;;;5025310;28;20254;-71
2023/10/01 02:28:20;;;;;;;6.53;2.73;;;15.40;99.90;;;;;;5025027;28;21009;-72
2023/10/01 02:30:56;;;;;;;5.87;2.57;;;15.40;99.90;;;;;;5015660;28;20217;-70
2023/10/01 02:33:24;;;;;;;6.10;2.47;;;15.50;99.90;;;;;;5007341;28;20335;-71
2023/10/01 02:35:55;;;;;;;6.93;2.77;;;15.50;99.90;;;;;;5006700;28;20252;-71
2023/10/01 02:38:43;;;;;;;4.23;2.50;;;15.50;99.90;;;;;;5005559;28;20206;-71
2023/10/01 02:41:09;;;;;;;3.00;2.47;;;15.50;99.90;;;;;;5020308;28;20315;-71
2023/10/01 02:43:41;;;;;;;3.50;2.20;;;15.40;99.90;;;;;;5024313;28;20703;-71
2023/10/01 02:46:11;;;;;;;3.40;2.30;;;15.50;99.90;;;;;;5024560;28;20196;-71
2023/10/01 02:48:40;;;;;;;6.23;3.20;;;15.50;99.90;;;;;;5024991;28;20244;-72
2023/10/01 02:51:16;;;;;;;4.40;2.60;;;15.40;99.90;;;;;;5024842;28;20209;-71
2023/10/01 02:56:26;;;;;;;4.40;2.37;;;15.30;99.90;;;;;;5024322;28;20291;-72
2023/10/01 02:58:52;;;;;;;3.37;2.70;;;15.30;99.90;;;;;;5024929;28;20212;-70
2023/10/01 03:01:21;;;;;;;4.87;2.57;;;15.20;99.90;;;;;;5024754;28;20816;-70
2023/10/01 03:03:46;;;;;;;5.13;2.80;;;15.00;99.90;;;;;;5024985;28;20735;-70
2023/10/01 03:06:16;;;;;;;4.13;2.50;;;14.90;99.90;;;;;;5024784;28;20206;-71
2023/10/01 03:09:02;;;;;;;7.80;2.77;;;15.00;99.90;;;;;;5024777;28;20316;-70
2023/10/01 03:11:40;;;;;;;4.03;2.67;;;15.10;99.90;;;;;;5024843;28;20209;-70
2023/10/01 03:14:19;;;;;;;4.13;2.87;;;15.10;99.90;;;;;;5024129;28;20200;-70
2023/10/01 03:16:53;;;;;;;4.73;2.60;;;15.00;99.90;;;;;;5025236;28;20293;-70
2023/10/01 03:19:25;;;;;;;3.10;2.80;;;15.00;99.90;;;;;;5024374;28;20208;-70
2023/10/01 03:24:46;;;;;;;5.57;2.57;;;14.90;99.90;;;;;;5013754;28;20213;-69
2023/10/01 03:27:20;;;;;;;4.70;2.80;;;14.90;99.90;;;;;;5024519;28;20391;-69
2023/10/01 03:29:48;;;;;;;7.13;2.73;;;15.00;99.90;;;;;;5024930;28;20303;-68
2023/10/01 03:32:28;;;;;;;5.47;2.77;;;14.90;99.90;;;;;;5024893;28;20613;-69
2023/10/01 03:34:56;;;;;;;5.17;2.43;;;14.90;99.90;;;;;;5028904;28;20196;-69
2023/10/01 03:37:27;;;;;;;5.77;2.93;;;14.80;99.90;;;;;;5028925;28;20209;-69
2023/10/01 03:40:05;;;;;;;2.60;2.40;;;14.80;99.90;;;;;;5028386;28;20231;-69
2023/10/01 03:42:36;;;;;;;5.07;2.83;;;14.70;99.90;;;;;;5028275;28;20232;-69
2023/10/01 03:45:37;;;;;;;4.33;3.20;;;14.70;99.90;;;;;;5028702;28;20208;-69
2023/10/01 03:48:07;;;;;;;4.60;2.57;;;14.70;99.90;;;;;;5028402;28;20244;-69
2023/10/01 03:50:45;;;;;;;5.27;2.60;;;14.70;99.90;;;;;;5028796;28;20209;-69
2023/10/01 03:53:18;;;;;;;4.97;2.77;;;14.70;99.90;;;;;;5028110;28;20219;-70
2023/10/01 03:55:53;;;;;;;2.53;2.33;;;14.70;99.90;;;;;;5028018;28;20308;-70
2023/10/01 03:58:25;;;;;;;4.13;2.50;;;14.80;99.90;;;;;;5027550;28;20221;-71
2023/10/01 04:00:54;;;;;;;4.20;2.70;;;14.70;99.90;;;;;;5027616;28;20730;-70
2023/10/01 04:03:22;;;;;;;4.30;2.50;;;14.80;99.90;;;;;;5027147;28;20201;-70
2023/10/01 04:05:56;;;;;;;3.83;2.77;;;14.90;99.90;;;;;;5027814;28;20212;-70
2023/10/01 04:08:23;;;;;;;5.50;3.07;;;15.00;99.90;;;;;;5007604;28;20248;-71
2023/10/01 04:10:58;;;;;;;3.67;2.80;;;15.10;99.90;;;;;;5008186;28;20312;-70
2023/10/01 04:13:27;;;;;;;4.00;2.33;;;15.20;99.90;;;;;;5021547;28;20200;-70
2023/10/01 04:15:56;;;;;;;6.33;3.10;;;15.30;99.90;;;;;;5027421;28;20279;-70
2023/10/01 04:18:24;;;;;;;5.67;2.73;;;15.40;99.90;;;;;;5027598;28;20208;-70
2023/10/01 04:23:40;;;;;;;4.27;2.87;;;15.40;99.90;;;;;;5026412;28;20212;-70
2023/10/01 04:26:13;;;;;;;3.93;2.60;;;15.50;99.90;;;;;;5026901;28;20573;-69
2023/10/01 04:28:44;;;;;;;5.87;3.50;;;15.50;99.90;;;;;;5007438;28;20233;-69
2023/10/01 04:31:15;;;;;;;5.97;2.77;;;15.40;99.90;;;;;;5007837;28;20271;-70
2023/10/01 04:33:43;;;;;;;3.60;2.80;;;15.20;99.90;;;;;;5022462;28;20212;-69
2023/10/01 04:36:11;;;;;;;4.87;2.80;;;15.10;99.90;;;;;;5027443;28;20292;-70
2023/10/01 04:38:41;;;;;;;3.77;2.80;;;15.10;99.90;;;;;;5027562;28;20201;-70
2023/10/01 04:41:13;;;;;;;5.67;2.90;;;15.10;99.90;;;;;;5026753;28;20252;-70
2023/10/01 04:43:51;;;;;;;3.50;2.67;;;15.20;99.90;;;;;;5026989;28;20193;-70
2023/10/01 04:46:20;;;;;;;6.07;2.97;;;15.10;99.90;;;;;;5006989;28;20200;-70
2023/10/01 04:48:47;;;;;;;5.70;2.93;;;15.20;99.90;;;;;;5021432;28;20244;-71
2023/10/01 04:51:14;;;;;;;4.63;2.63;;;15.10;99.90;;;;;;5027252;28;20241;-71
2023/10/01 04:53:46;;;;;;;3.27;2.57;;;15.00;99.90;;;;;;5024401;28;20742;-70
2023/10/01 04:56:20;;;;;;;5.17;3.13;;;15.00;99.90;;;;;;5027021;28;20193;-70
2023/10/01 04:58:51;;;;;;;5.07;2.83;;;14.90;99.90;;;;;;5026848;28;20200;-70
2023/10/01 05:01:23;;;;;;;5.70;3.00;;;14.90;99.90;;;;;;5026584;28;20197;-70
2023/10/01 05:03:52;;;;;;;5.03;2.70;;;15.00;99.90;;;;;;5026771;28;20205;-70
2023/10/01 05:06:19;;;;;;;5.43;2.87;;;15.00;99.90;;;;;;5025783;28;20571;-70
2023/10/01 05:08:49;;;;;;;4.00;2.90;;;15.00;99.90;;;;;;5006804;28;20268;-70
2023/10/01 05:11:21;;;;;;;6.67;2.77;;;15.10;99.90;;;;;;5007305;28;20209;-70
2023/10/01 05:13:51;;;;;;;5.97;3.33;;;14.90;99.90;;;;;;5017015;28;20243;-70
2023/10/01 05:16:26;;;;;;;4.60;2.83;;;14.80;99.90;;;;;;5026649;28;20239;-70
2023/10/01 05:19:09;;;;;;;8.87;3.37;;;14.80;99.90;;;;;;5026870;28;20200;-70
2023/10/01 05:21:41;;;;;;;5.87;3.20;;;14.80;99.90;;;;;;5021381;28;20193;-70
2023/10/01 05:24:09;;;;;;;5.07;3.20;;;14.90;99.90;;;;;;5021167;28;20240;-70
2023/10/01 05:26:38;;;;;;;7.47;3.40;;;14.80;99.90;;;;;;5026919;28;20209;-70
2023/10/01 05:29:07;;;;;;;8.63;3.23;;;14.90;99.90;;;;;;5025948;28;20279;-70
2023/10/01 05:31:34;;;;;;;6.40;3.20;;;14.80;99.90;;;;;;5026308;28;20222;-70
2023/10/01 05:34:01;;;;;;;8.03;3.20;;;14.90;99.90;;;;;;5026160;28;20274;-71
2023/10/01 05:36:29;;;;;;;5.27;3.10;;;15.00;99.90;;;;;;5026380;28;20750;-70
2023/10/01 05:38:56;;;;;;;5.73;3.00;;;14.80;99.90;;;;;;5025994;28;20219;-70
2023/10/01 05:41:32;;;;;;;4.17;3.10;;;14.90;99.90;;;;;;5025738;28;20324;-71
2023/10/01 05:44:01;;;;;;;8.23;3.33;;;14.90;99.90;;;;;;5026136;28;20204;-70
2023/10/01 05:46:30;;;;;;;3.63;3.10;;;14.80;99.90;;;;;;5026200;28;20908;-71
2023/10/01 05:49:00;;;;;;;4.90;2.97;;;14.80;99.90;;;;;;5026002;28;20228;-71
2023/10/01 05:51:42;;;;;;;5.33;3.00;;;14.90;99.90;;;;;;5026182;28;20201;-71
2023/10/01 05:54:11;;;;;;;4.70;2.67;;;14.90;99.90;;;;;;5025741;28;20644;-69
2023/10/01 05:56:43;;;;;;;3.77;3.20;;;15.00;99.90;;;;;;5025010;28;20259;-69
2023/10/01 05:59:12;;;;;;;8.50;3.30;;;15.10;99.90;;;;;;5025477;28;20652;-69
2023/10/01 06:01:39;;;;;;;6.33;3.10;;;15.20;99.90;;;;;;5025856;28;20201;-70
2023/10/01 06:04:12;;;;;;;4.60;3.10;;;15.20;99.90;;;;;;5025657;28;20201;-71
2023/10/01 06:06:42;;;;;;;5.03;3.17;;;15.20;99.90;;;;;;5012792;28;20283;-70
2023/10/01 06:09:14;;;;;;;8.33;3.50;;;15.20;99.90;;;;;;5005941;28;20264;-70
2023/10/01 06:11:48;;;;;;;5.50;3.03;;;15.10;99.90;;;;;;5006081;28;20200;-71
2023/10/01 06:17:01;;;;;;;5.17;3.20;;;15.00;99.90;;;;;;5024470;28;20234;-71
2023/10/01 06:19:28;;;;;;;5.27;2.90;;;15.00;99.90;;;;;;5025765;28;20606;-70
2023/10/01 06:22:12;;;;;;;4.63;3.10;;;15.00;99.90;;;;;;5025720;28;20275;-71
2023/10/01 06:24:39;;;;;;;7.23;3.17;;;15.00;99.90;;;;;;5025426;28;20208;-70
2023/10/01 06:27:09;;;;;;;4.40;3.17;;;14.90;99.90;;;;;;5025233;28;20201;-70
2023/10/01 06:29:49;;;;;;;6.23;2.90;;;14.90;99.90;;;;;;5025526;28;20267;-70
2023/10/01 06:32:17;;;;;;;5.03;3.03;;;14.90;99.90;;;;;;5025981;28;20197;-70
2023/10/01 06:34:45;;;;;;;5.57;2.90;;;15.00;99.90;;;;;;5025761;28;20209;-69
2023/10/01 06:37:12;;;;;;;4.70;3.00;;;15.00;99.90;;;;;;5025314;28;20240;-72
2023/10/01 06:39:41;;;;;;;7.10;3.50;;;15.00;99.90;;;;;;5025656;28;20220;-70
2023/10/01 06:42:23;;;;;;;5.00;3.23;;;15.10;99.90;;;;;;5025398;28;20258;-70
2023/10/01 06:44:54;;;;;;;8.40;3.80;;;15.10;99.90;;;;;;5025363;28;20196;-70
2023/10/01 06:47:22;;;;;;;4.23;3.03;;;15.00;99.90;;;;;;5025391;28;20193;-69
2023/10/01 06:50:12;;;;;;;7.23;3.50;;;15.10;99.90;;;;;;5025271;28;20232;-70
2023/10/01 06:52:41;;;;;;;4.20;2.80;;;15.10;99.90;;;;;;5025550;28;20635;-70
2023/10/01 06:55:25;;;;;;;8.70;2.93;;;15.10;99.90;;;;;;5024583;28;20665;-70
2023/10/01 06:57:53;;;;;;;5.03;2.80;;;15.20;99.90;;;;;;5025464;28;20197;-70
2023/10/01 07:00:22;;;;;;;5.50;3.40;;;15.20;99.90;;;;;;5025033;28;20216;-70
2023/10/01 07:02:50;;;;;;;5.57;3.17;;;15.30;99.90;;;;;;5024858;28;20299;-70
2023/10/01 07:05:20;;;;;;;4.23;3.03;;;15.30;99.90;;;;;;5024764;28;20249;-70
2023/10/01 07:07:49;;;;;;;3.10;2.80;;;15.30;99.90;;;;;;5025666;28;20240;-71
2023/10/01 07:10:19;;;;;;;4.97;2.87;;;15.40;99.90;;;;;;5028841;28;20973;-70
2023/10/01 07:12:58;;;;;;;4.47;2.60;;;15.50;99.90;;;;;;5028530;28;20205;-71
2023/10/01 07:15:26;;;;;;;6.40;2.80;;;15.50;99.90;;;;;;5028939;28;20200;-71
2023/10/01 07:17:53;;;;;;;7.53;2.90;;;15.60;99.90;;;;;;5029255;28;20586;-70
2023/10/01 07:20:24;;;;;;;4.67;3.17;;;15.60;99.90;;;;;;5028757;28;20353;-70
2023/10/01 07:22:51;;;;;;;4.87;3.07;;;15.60;99.90;;;;;;5029088;28;20193;-70
2023/10/01 07:25:37;;;;;;;6.73;3.07;;;15.60;99.90;;;;;;5026557;28;20296;-70
2023/10/01 07:28:06;;;;;;;6.43;2.60;;;15.60;99.90;;;;;;5026437;28;20208;-70
2023/10/01 07:30:45;;;;;;;4.53;3.30;;;15.70;99.90;;;;;;5028314;28;20216;-71
2023/10/01 07:33:14;;;;;;;4.17;2.70;;;15.80;99.90;;;;;;5028470;28;20591;-70
2023/10/01 07:35:44;;;;;;;5.73;3.07;;;15.90;99.90;;;;;;5028789;28;20209;-71
2023/10/01 07:38:11;;;;;;;3.83;3.20;;;15.90;99.90;;;;;;5028387;28;20205;-70
2023/10/01 07:40:57;;;;;;;5.40;2.90;;;16.00;99.90;;;;;;5023763;28;20778;-71
2023/10/01 07:43:24;;;;;;;5.77;2.97;;;16.20;99.90;;;;;;5017171;28;20196;-70
2023/10/01 07:46:01;;;;;;;3.80;2.70;;;16.30;99.90;;;;;;5019750;28;20201;-70
2023/10/01 07:48:29;;;;;;;5.10;2.70;;;16.40;99.90;;;;;;5014763;28;20193;-71
2023/10/01 07:50:56;;;;;;;4.03;3.00;;;16.30;99.90;;;;;;5017467;28;20292;-71
2023/10/01 07:53:31;;;;;;;7.77;3.40;;;16.40;99.90;;;;;;5020594;28;20663;-71
2023/10/01 07:55:59;;;;;;;4.30;2.80;;;16.40;99.90;;;;;;5017764;28;20193;-71
2023/10/01 07:58:44;;;;;;;11.13;3.30;;;16.40;99.90;;;;;;5013833;28;20287;-71
2023/10/01 08:03:58;;;;;;;5.37;3.27;;;16.40;99.90;;;;;;5017713;28;20765;-71
2023/10/01 08:06:29;;;;;;;6.87;3.43;;;16.40;99.90;;;;;;5019449;28;20204;-70
2023/10/01 08:08:58;;;;;;;4.70;2.87;;;16.40;99.90;;;;;;5017896;28;20360;-71
2023/10/01 08:14:10;;;;;;;7.80;3.80;;;16.40;99.90;;;;;;5015424;28;20572;-70
2023/10/01 08:16:47;;;;;;;5.47;3.00;;;16.40;99.90;;;;;;5018581;28;20288;-70
2023/10/01 08:19:16;;;;;;;6.40;2.87;;;16.40;99.90;;;;;;5016301;28;20757;-71
2023/10/01 08:21:48;;;;;;;3.90;3.07;;;16.50;99.90;;;;;;5012352;28;20209;-71
2023/10/01 08:24:18;;;;;;;6.67;4.47;;;16.40;99.90;;;;;;5016932;28;20277;-71
2023/10/01 08:26:49;;;;;;;11.17;7.70;;;16.40;99.90;;;;;;5016279;28;20212;-71
2023/10/01 08:29:17;;;;;;;7.43;5.00;;;16.40;99.90;;;;;;5017783;28;20306;-71
2023/10/01 08:35:03;;;;;;;6.00;3.40;;;16.40;99.90;;;;;;4964879;28;20207;-70
2023/10/01 08:37:31;;;;;;;6.53;3.57;;;16.40;99.90;;;;;;5011309;28;20209;-70
2023/10/01 08:39:58;;;;;;;5.40;3.10;;;16.50;99.90;;;;;;5006838;28;20605;-70
2023/10/01 08:42:28;;;;;;;5.93;3.47;;;16.50;99.90;;;;;;5015132;28;20923;-70
2023/10/01 08:45:02;;;;;;;6.33;3.40;;;16.50;99.90;;;;;;5026223;28;20224;-70
2023/10/01 08:47:35;;;;;;;6.53;3.13;;;16.40;99.90;;;;;;5026267;28;20197;-70
2023/10/01 08:50:18;;;;;;;5.77;3.17;;;16.50;99.90;;;;;;5026054;28;20252;-70
2023/10/01 08:52:56;;;;;;;5.17;3.40;;;16.60;99.90;;;;;;5024076;28;20313;-70
2023/10/01 08:55:24;;;;;;;5.53;3.33;;;16.50;99.90;;;;;;5005734;28;20197;-70
2023/10/01 08:57:53;;;;;;;6.73;3.73;;;16.60;99.90;;;;;;5007802;28;20203;-70
2023/10/01 09:00:24;;;;;;;7.10;3.27;;;16.70;99.90;;;;;;5019313;28;20237;-70
2023/10/01 09:02:55;;;;;;;7.13;3.37;;;16.70;99.90;;;;;;5019167;28;20205;-71
2023/10/01 09:05:25;;;;;;;6.73;3.80;;;16.70;99.90;;;;;;5020374;28;20924;-70
2023/10/01 09:08:15;;;;;;;7.10;3.63;;;16.80;99.90;;;;;;5018063;28;20650;-71
2023/10/01 09:10:51;;;;;;;6.17;3.17;;;16.80;99.90;;;;;;5005951;28;20767;-71
2023/10/01 09:13:21;;;;;;;6.93;3.80;;;16.80;99.90;;;;;;5007659;28;20279;-71
2023/10/01 09:15:54;;;;;;;7.20;3.40;;;16.80;99.90;;;;;;5014793;28;20205;-71
2023/10/01 09:18:23;;;;;;;4.93;3.33;;;16.90;99.90;;;;;;5015354;28;20782;-71
2023/10/01 09:21:06;;;;;;;4.17;3.27;;;16.90;99.90;;;;;;5017001;28;20695;-71
2023/10/01 09:23:55;;;;;;;10.13;3.70;;;17.00;99.90;;;;;;5022473;28;20201;-70
2023/10/01 09:26:39;;;;;;;4.50;3.43;;;17.00;99.90;;;;;;5025771;28;20193;-71
2023/10/01 09:29:13;;;;;;;5.47;3.60;;;17.00;99.90;;;;;;5025005;28;20240;-71
2023/10/01 09:31:53;;;;;;;7.57;5.53;;;17.20;99.90;;;;;;5018388;28;20192;-71
2023/10/01 09:34:34;;;;;;;7.97;3.70;;;17.50;99.90;;;;;;5015832;28;20209;-70
2023/10/01 09:37:12;;;;;;;8.27;3.53;;;17.70;99.90;;;;;;5018778;28;20197;-71
2023/10/01 09:39:41;;;;;;;6.20;3.60;;;17.90;99.90;;;;;;5014059;28;20229;-70
2023/10/01 09:42:22;;;;;;;6.40;4.00;;;18.10;99.90;;;;;;5015172;28;20263;-71
2023/10/01 09:44:52;;;;;;;6.33;3.43;;;18.20;99.90;;;;;;5005118;28;20407;-71
2023/10/01 09:47:27;;;;;;;5.73;4.13;;;18.20;99.90;;;;;;5005827;28;20220;-71
2023/10/01 09:49:57;;;;;;;7.10;4.23;;;18.20;99.90;;;;;;5005495;28;20637;-72
2023/10/01 09:52:30;;;;;;;4.90;4.03;;;18.30;99.90;;;;;;5016004;28;20276;-72
2023/10/01 09:55:11;;;;;;;8.93;4.40;;;18.40;99.90;;;;;;5024964;28;20437;-71
2023/10/01 09:57:39;;;;;;;6.23;3.23;;;18.50;99.90;;;;;;5004878;28;20204;-70
2023/10/01 10:00:17;;;;;;;6.33;4.13;;;18.60;99.90;;;;;;5004661;28;20213;-71
2023/10/01 10:02:53;;;;;;;6.17;4.63;;;18.80;99.90;;;;;;5018793;28;20197;-71
2023/10/01 10:05:28;;;;;;;5.73;4.10;;;18.90;99.90;;;;;;5024383;28;20250;-71
2023/10/01 10:07:56;;;;;;;6.47;4.67;;;19.10;99.90;;;;;;5020261;28;20263;-71
2023/10/01 10:10:26;;;;;;;5.30;4.80;;;19.10;99.90;;;;;;5018070;28;20324;-71
2023/10/01 10:12:56;;;;;;;8.20;4.47;;;19.00;99.90;;;;;;5018805;28;20208;-70
2023/10/01 10:15:52;;;;;;;8.03;5.20;;;19.00;99.90;;;;;;5012100;28;20675;-70
2023/10/01 10:18:23;;;;;;;6.83;4.90;;;19.20;99.90;;;;;;5010231;28;20968;-70
2023/10/01 10:21:03;;;;;;;7.20;4.70;;;19.50;99.90;;;;;;5013399;28;20630;-70
2023/10/01 10:23:30;;;;;;;5.60;4.90;;;19.60;99.90;;;;;;5018235;28;20207;-71
2023/10/01 10:26:14;;;;;;;6.43;4.20;;;19.70;99.90;;;;;;5017869;28;20200;-71
2023/10/01 10:29:00;;;;;;;11.57;6.67;;;19.80;99.90;;;;;;5017488;28;20308;-71
2023/10/01 10:31:32;;;;;;;9.47;6.30;;;19.90;99.90;;;;;;5020117;28;20303;-71
2023/10/01 10:34:21;;;;;;;6.37;4.67;;;19.80;99.90;;;;;;5009793;28;20207;-71
2023/10/01 10:36:54;;;;;;;8.73;4.10;;;19.70;99.90;;;;;;5012559;28;20201;-71
2023/10/01 10:40:23;;;;;;;6.37;4.70;;;19.70;99.90;;;;;;5016480;28;20230;-71
2023/10/01 10:43:16;;;;;;;7.27;4.63;;;19.60;99.90;;;;;;5010616;28;20212;-71
2023/10/01 10:46:00;;;;;;;7.17;4.13;;;19.60;99.90;;;;;;5014675;28;20220;-71
2023/10/01 10:48:59;;;;;;;10.30;4.90;;;19.70;99.90;;;;;;5023687;28;20295;-70
2023/10/01 10:51:46;;;;;;;8.07;3.97;;;19.90;99.90;;;;;;5023501;28;20204;-71
2023/10/01 10:54:31;;;;;;;6.43;4.17;;;19.90;99.90;;;;;;5017484;28;20219;-71
2023/10/01 10:56:59;;;;;;;6.77;4.23;;;20.10;99.90;;;;;;5023616;28;20200;-71
2023/10/01 10:59:30;;;;;;;6.67;4.00;;;20.20;99.90;;;;;;5023787;28;20582;-71
2023/10/01 11:02:00;;;;;;;6.50;3.97;;;20.40;99.90;;;;;;5007986;28;20312;-71
2023/10/01 11:04:33;;;;;;;4.47;4.00;;;20.40;99.90;;;;;;5023770;28;20285;-71
2023/10/01 11:07:04;;;;;;;8.87;4.03;;;20.50;99.90;;;;;;5013394;28;20331;-71
2023/10/01 11:09:33;;;;;;;5.43;4.13;;;20.60;99.90;;;;;;5023652;28;20307;-71
2023/10/01 11:12:19;;;;;;;4.87;4.10;;;20.60;99.90;;;;;;5023448;28;20217;-70
2023/10/01 11:14:55;;;;;;;5.70;4.57;;;20.80;99.90;;;;;;5023426;28;20659;-70
2023/10/01 11:17:24;;;;;;;4.17;3.77;;;20.70;99.90;;;;;;5023261;28;20561;-70
2023/10/01 11:19:58;;;;;;;5.97;3.80;;;20.70;99.90;;;;;;5023538;28;20235;-70
2023/10/01 11:22:26;;;;;;;5.30;4.23;;;20.50;99.90;;;;;;5023390;28;20217;-70
2023/10/01 11:24:54;;;;;;;7.30;4.63;;;20.50;99.90;;;;;;5023330;28;20312;-71
2023/10/01 11:27:25;;;;;;;7.03;4.00;;;20.50;99.90;;;;;;5023294;28;20243;-71
2023/10/01 11:30:12;;;;;;;7.97;4.23;;;20.60;99.90;;;;;;5023410;28;20217;-70
2023/10/01 11:33:12;;;;;;;8.45;3.58;;;20.70;99.90;;;;;;5023219;28;20251;-70
2023/10/01 11:35:41;;;;;;;5.30;3.67;;;20.60;99.90;;;;;;5011882;28;20223;-70
2023/10/01 11:38:10;;;;;;;6.30;4.00;;;20.60;99.90;;;;;;5022334;28;20616;-70
2023/10/01 11:43:27;;;;;;;6.27;4.23;;;20.60;99.90;;;;;;5013292;28;20563;-70
2023/10/01 11:46:20;;;;;;;7.83;4.23;;;20.80;99.90;;;;;;5017376;28;20686;-70
2023/10/01 11:48:59;;;;;;;4.90;4.33;;;20.90;99.90;;;;;;5016568;28;20201;-70
2023/10/01 11:51:31;;;;;;;9.00;4.30;;;20.50;99.90;;;;;;5016341;28;20229;-70
2023/10/01 11:54:08;;;;;;;8.10;4.03;;;20.60;99.90;;;;;;5019858;28;20204;-71
2023/10/01 11:56:37;;;;;;;7.03;4.50;;;20.40;99.90;;;;;;5018004;28;20359;-71
2023/10/01 11:59:06;;;;;;;9.30;4.00;;;20.20;99.90;;;;;;5019854;28;20210;-70
2023/10/01 12:01:39;;;;;;;6.80;3.50;;;20.30;99.90;;;;;;5013510;28;20202;-71
2023/10/01 12:04:07;;;;;;;5.57;3.60;;;20.20;99.90;;;;;;5016319;28;20198;-70
2023/10/01 12:06:35;;;;;;;5.27;3.50;;;20.30;99.90;;;;;;5022402;28;20315;-71
2023/10/01 12:09:02;;;;;;;6.50;3.40;;;20.20;99.90;;;;;;5017374;28;20272;-71
2023/10/01 12:11:28;;;;;;;4.10;3.37;;;20.30;99.90;;;;;;5009905;28;20232;-71
2023/10/01 12:14:08;;;;;;;4.70;3.50;;;20.30;99.90;;;;;;5013555;28;20318;-70
2023/10/01 12:16:39;;;;;;;5.23;3.57;;;20.20;99.90;;;;;;5024250;28;20505;-71
2023/10/01 12:19:24;;;;;;;5.87;3.30;;;20.20;99.90;;;;;;5021130;28;20311;-70
2023/10/01 12:22:05;;;;;;;8.77;3.40;;;20.20;99.90;;;;;;5018813;28;20268;-70
2023/10/01 12:24:39;;;;;;;4.80;2.77;;;20.20;99.90;;;;;;5021006;28;20208;-70
2023/10/01 12:27:10;;;;;;;8.77;3.27;;;20.20;99.90;;;;;;5025660;28;20292;-70
2023/10/01 12:29:48;;;;;;;6.37;3.23;;;20.10;99.90;;;;;;5010243;28;20212;-70
2023/10/01 12:32:16;;;;;;;6.67;3.40;;;20.10;99.90;;;;;;5011423;28;20803;-70
2023/10/01 12:34:44;;;;;;;5.87;3.20;;;19.90;99.90;;;;;;5007746;28;20301;-71
2023/10/01 12:40:13;;;;;;;5.97;2.87;;;19.90;99.90;;;;;;5024870;28;20546;-70
2023/10/01 12:42:38;;;;;;;4.30;2.93;;;19.90;99.90;;;;;;5005498;28;20235;-71
2023/10/01 12:45:14;;;;;;;3.60;3.20;;;19.90;99.90;;;;;;5022466;28;20208;-71
2023/10/01 12:47:50;;;;;;;4.97;3.10;;;20.00;99.90;;;;;;5025429;28;20201;-70
2023/10/01 12:50:26;;;;;;;4.97;2.90;;;20.00;99.90;;;;;;5025436;28;20228;-70
2023/10/01 12:53:18;;;;;;;3.70;2.90;;;20.00;99.90;;;;;;5011410;28;20887;-70
2023/10/01 12:55:44;;;;;;;5.27;3.20;;;20.00;99.90;;;;;;5024983;28;20317;-70
2023/10/01 12:58:09;;;;;;;9.50;3.20;;;20.10;99.90;;;;;;5025419;28;20201;-70
2023/10/01 13:00:47;;;;;;;4.43;3.70;;;20.20;99.90;;;;;;5025210;28;20768;-70
2023/10/01 13:03:17;;;;;;;7.50;3.60;;;20.20;99.90;;;;;;5008843;28;20814;-70
2023/10/01 13:05:45;;;;;;;5.43;3.13;;;20.20;99.90;;;;;;5008884;28;20208;-70
2023/10/01 13:08:11;;;;;;;5.17;3.43;;;20.20;99.90;;;;;;5025171;28;20244;-70
2023/10/01 13:10:50;;;;;;;5.30;3.27;;;20.20;99.90;;;;;;5025560;28;20274;-71
2023/10/01 13:13:20;;;;;;;7.23;3.37;;;20.20;99.90;;;;;;5025241;28;20201;-70
2023/10/01 13:15:54;;;;;;;4.27;3.03;;;20.10;99.90;;;;;;5025243;28;20243;-70
2023/10/01 13:18:28;;;;;;;5.40;2.90;;;20.00;99.90;;;;;;5021017;28;20192;-71
2023/10/01 13:21:06;;;;;;;6.33;2.93;;;19.80;99.90;;;;;;5016628;28;20220;-71
2023/10/01 13:23:41;;;;;;;4.00;3.23;;;19.90;99.90;;;;;;5022421;28;20208;-71
2023/10/01 13:26:14;;;;;;;6.17;3.20;;;19.90;99.90;;;;;;5014638;28;20196;-70
2023/10/01 13:28:46;;;;;;;5.40;3.13;;;19.90;99.90;;;;;;5016831;28;20209;-71
2023/10/01 13:34:09;;;;;;;7.47;3.43;;;19.90;99.90;;;;;;5025258;28;20204;-70
2023/10/01 13:36:50;;;;;;;5.83;3.43;;;20.00;99.90;;;;;;5024781;28;20205;-71
2023/10/01 13:39:25;;;;;;;4.53;3.20;;;20.00;99.90;;;;;;5024289;28;20281;-70
2023/10/01 14:09:51;;;;;;;4.93;2.60;;;19.50;99.90;;;;;;5014465;28;20239;-71